Time;durP1;ratioP1;P1;durP2;ratioP2;P2;SDS_P1;SDS_P2;PMS_P1;PMS_P2;Temp;Humidity;BMP_temperature;BMP_pressure;BME280_temperature;BME280_humidity;BME280_pressure;Samples;Min_cycle;Max_cycle;Signal;HPM_P1;HPM_P2
2021/03/25 00:01:33;;;;;;;66.35;27.73;;;;;;;5.39;83.13;100355.78;5088555;28;20020;-65
2021/03/25 00:03:59;;;;;;;45.72;18.80;;;;;;;5.39;82.95;100359.22;5088099;28;20024;-64
2021/03/25 00:06:26;;;;;;;68.18;24.73;;;;;;;5.31;83.08;100354.00;5106534;28;20020;-65
2021/03/25 00:08:52;;;;;;;62.72;25.60;;;;;;;5.31;83.29;100356.56;5106586;28;20020;-65
2021/03/25 00:11:18;;;;;;;63.25;27.67;;;;;;;5.30;83.45;100361.69;5106560;28;20038;-65
2021/03/25 00:13:44;;;;;;;56.63;25.08;;;;;;;5.30;83.39;100361.69;5106492;28;20076;-65
2021/03/25 00:16:13;;;;;;;67.75;28.17;;;;;;;5.29;83.26;100360.81;5106847;28;20046;-65
2021/03/25 00:18:39;;;;;;;63.97;23.20;;;;;;;5.23;83.03;100354.72;5106499;28;20020;-64
2021/03/25 00:21:07;;;;;;;66.72;25.83;;;;;;;5.21;83.31;100359.84;5105212;28;20336;-65
2021/03/25 00:23:32;;;;;;;66.72;25.80;;;;;;;5.15;83.45;100355.50;5106238;28;20074;-64
2021/03/25 00:25:58;;;;;;;72.18;28.48;;;;;;;5.13;83.60;100358.91;5106456;28;20069;-65
2021/03/25 00:28:23;;;;;;;64.55;26.83;;;;;;;5.11;83.76;100361.47;5106129;28;20051;-64
2021/03/25 00:30:48;;;;;;;61.70;25.25;;;;;;;5.15;83.80;100365.81;5088055;28;20020;-65
2021/03/25 00:33:17;;;;;;;63.92;24.48;;;;;;;5.12;83.99;100360.63;5087932;28;20059;-66
2021/03/25 00:35:43;;;;;;;56.33;21.30;;;;;;;5.16;84.00;100367.53;5105967;28;20270;-66
2021/03/25 00:38:09;;;;;;;67.35;25.95;;;;;;;5.19;84.40;100359.84;5106121;28;20476;-65
2021/03/25 00:40:34;;;;;;;66.78;24.98;;;;;;;5.24;84.34;100359.06;5106018;28;20483;-65
2021/03/25 00:43:05;;;;;;;53.60;21.92;;;;;;;5.26;84.42;100359.91;5106064;28;20020;-64
2021/03/25 00:45:36;;;;;;;63.13;25.10;;;;;;;5.31;84.32;100360.84;5087567;28;20022;-65
2021/03/25 00:48:02;;;;;;;60.90;23.13;;;;;;;5.36;84.13;100369.50;5106014;28;20024;-64
2021/03/25 00:50:49;;;;;;;62.08;24.30;;;;;;;5.37;84.12;100370.38;5087337;28;20472;-64
2021/03/25 00:53:19;;;;;;;52.45;17.30;;;;;;;5.36;84.06;100360.91;5105884;28;20498;-64
2021/03/25 00:55:44;;;;;;;66.20;24.80;;;;;;;5.39;83.84;100371.22;5105979;28;20028;-64
2021/03/25 00:58:10;;;;;;;47.97;19.38;;;;;;;5.39;83.79;100366.97;5105783;28;20035;-65
2021/03/25 01:00:40;;;;;;;62.40;23.15;;;;;;;5.38;83.69;100367.81;5105595;28;20111;-65
2021/03/25 01:03:08;;;;;;;57.58;22.42;;;;;;;5.36;83.88;100364.34;5105697;28;20028;-64
2021/03/25 01:05:34;;;;;;;65.93;26.38;;;;;;;5.32;83.75;100363.44;5105338;28;20024;-64
2021/03/25 01:07:59;;;;;;;57.70;21.60;;;;;;;5.35;83.78;100372.94;5105608;28;20510;-66
2021/03/25 01:10:31;;;;;;;62.13;22.33;;;;;;;5.35;83.83;100374.63;5105272;28;20028;-65
2021/03/25 01:12:59;;;;;;;72.43;26.08;;;;;;;5.40;83.56;100384.13;5105513;28;20047;-65
2021/03/25 01:15:25;;;;;;;65.32;26.00;;;;;;;5.42;83.25;100382.44;5105387;28;20392;-65
2021/03/25 01:17:52;;;;;;;61.38;22.98;;;;;;;5.40;83.45;100380.72;5087150;28;20143;-66
2021/03/25 01:20:25;;;;;;;60.95;23.58;;;;;;;5.42;82.86;100382.44;5104831;28;20111;-65
2021/03/25 01:22:51;;;;;;;58.28;21.17;;;;;;;5.43;82.99;100375.59;5105022;28;20044;-66
2021/03/25 01:25:18;;;;;;;46.70;17.38;;;;;;;5.39;82.73;100379.84;5105185;28;20023;-66
2021/03/25 01:27:43;;;;;;;56.22;21.23;;;;;;;5.41;82.27;100378.16;5105249;28;20024;-65
2021/03/25 01:30:09;;;;;;;56.40;21.77;;;;;;;5.38;81.81;100378.13;5105074;28;20039;-65
2021/03/25 01:32:35;;;;;;;60.53;22.38;;;;;;;5.31;81.70;100376.28;5104983;28;20016;-64
2021/03/25 01:35:00;;;;;;;65.97;23.15;;;;;;;5.26;81.61;100377.94;5104697;28;20091;-63
2021/03/25 01:37:26;;;;;;;76.10;24.55;;;;;;;5.12;81.56;100377.75;5105148;28;20028;-64
2021/03/25 01:39:51;;;;;;;61.30;21.00;;;;;;;4.95;81.56;100361.22;5104630;28;20058;-65
2021/03/25 01:42:22;;;;;;;66.70;22.27;;;;;;;4.83;81.85;100369.66;5104961;28;20024;-64
2021/03/25 01:44:48;;;;;;;57.63;21.50;;;;;;;4.82;81.86;100377.34;5105230;28;20020;-64
2021/03/25 01:47:13;;;;;;;60.00;21.30;;;;;;;4.77;81.85;100382.44;5086537;28;20035;-64
2021/03/25 01:49:38;;;;;;;57.47;20.48;;;;;;;4.70;81.73;100385.72;5104386;28;20491;-63
2021/03/25 01:52:22;;;;;;;62.15;20.80;;;;;;;4.61;81.78;100381.31;5104601;28;20031;-65
2021/03/25 01:55:02;;;;;;;55.03;18.80;;;;;;;4.57;81.62;100387.25;5104709;28;20081;-64
2021/03/25 01:57:52;;;;;;;56.10;17.80;;;;;;;4.50;81.44;100391.44;5104612;28;20036;-63
2021/03/25 02:00:47;;;;;;;49.40;17.67;;;;;;;4.43;81.45;100387.91;5104553;28;20134;-65
2021/03/25 02:03:39;;;;;;;46.33;16.05;;;;;;;4.34;81.47;100396.31;5095713;28;20063;-63
2021/03/25 02:06:28;;;;;;;50.85;17.40;;;;;;;4.31;81.43;100392.84;5104085;28;20035;-64
2021/03/25 02:08:56;;;;;;;46.95;16.85;;;;;;;4.31;81.69;100393.69;5104210;28;20047;-64
2021/03/25 02:11:28;;;;;;;50.08;16.63;;;;;;;4.37;81.77;100392.94;5104329;28;20034;-65
2021/03/25 02:14:10;;;;;;;44.58;18.85;;;;;;;4.44;81.79;100381.06;5104391;28;20028;-65
2021/03/25 02:16:41;;;;;;;;;;;;;;;4.55;81.75;100399.22;5104737;28;20031;-65
2021/03/25 02:19:41;;;;;;;47.35;16.38;;;;;;;4.58;81.71;100407.00;5104019;28;19908;-64
2021/03/25 02:22:44;;;;;;;55.53;20.73;;;;;;;4.63;81.76;100394.19;5104078;28;20012;-64
2021/03/25 02:25:15;;;;;;;50.58;19.58;;;;;;;4.64;81.66;100385.63;5104008;28;20035;-64
2021/03/25 02:27:51;;;;;;;53.08;18.67;;;;;;;4.71;81.72;100382.34;5104193;28;20031;-65
2021/03/25 02:30:35;;;;;;;49.97;20.13;;;;;;;4.80;81.64;100391.88;5103814;28;20347;-65
2021/03/25 02:33:03;;;;;;;54.83;21.90;;;;;;;4.84;81.52;100381.66;5103947;28;20539;-66
2021/03/25 02:35:38;;;;;;;64.53;20.75;;;;;;;4.84;81.45;100373.06;5103680;28;20464;-65
2021/03/25 02:38:29;;;;;;;53.33;19.35;;;;;;;4.88;81.50;100384.28;5103875;28;20031;-66
2021/03/25 02:40:58;;;;;;;51.55;20.00;;;;;;;4.96;81.18;100390.41;5104074;28;20024;-65
2021/03/25 02:43:46;;;;;;;50.40;19.50;;;;;;;4.93;81.16;100386.09;5085746;28;20115;-65
2021/03/25 02:46:36;;;;;;;48.85;17.65;;;;;;;4.94;81.00;100392.09;5103622;28;20020;-66
2021/03/25 02:49:05;;;;;;;54.05;20.20;;;;;;;4.91;80.88;100392.03;5103627;28;20108;-65
2021/03/25 02:51:39;;;;;;;42.85;14.60;;;;;;;4.84;80.65;100397.09;5103459;28;20055;-66
2021/03/25 02:54:05;;;;;;;56.97;19.23;;;;;;;4.87;80.63;100398.00;5103532;28;20464;-65
2021/03/25 02:56:34;;;;;;;51.63;17.02;;;;;;;4.88;80.63;100400.59;5103879;28;20031;-65
2021/03/25 02:59:04;;;;;;;49.40;16.27;;;;;;;4.89;80.53;100398.91;5085358;28;20053;-66
2021/03/25 03:01:33;;;;;;;49.05;16.02;;;;;;;4.89;80.30;100397.16;5103809;28;20066;-65
2021/03/25 03:04:02;;;;;;;44.40;16.42;;;;;;;4.84;80.32;100399.66;5103522;28;20047;-65
2021/03/25 03:06:33;;;;;;;41.55;16.10;;;;;;;4.83;80.07;100397.94;5103246;28;20456;-65
2021/03/25 03:09:03;;;;;;;43.13;14.95;;;;;;;4.80;79.77;100407.31;5103358;28;20027;-65
2021/03/25 03:11:34;;;;;;;40.55;14.95;;;;;;;4.73;79.78;100392.66;5103543;28;20028;-65
2021/03/25 03:14:06;;;;;;;46.00;15.90;;;;;;;4.73;80.01;100410.66;5103430;28;20110;-65
2021/03/25 03:16:41;;;;;;;40.95;13.90;;;;;;;4.69;79.61;100392.59;5103548;28;20028;-64
2021/03/25 03:19:22;;;;;;;43.20;13.18;;;;;;;4.67;79.77;100388.25;5102045;28;20103;-64
2021/03/25 03:21:54;;;;;;;34.25;10.85;;;;;;;4.59;79.48;100403.56;5103291;28;20055;-65
2021/03/25 03:24:21;;;;;;;37.70;12.70;;;;;;;4.57;79.55;100402.66;5103487;28;20062;-65
2021/03/25 03:26:57;;;;;;;37.25;11.20;;;;;;;4.40;79.37;100392.13;5103326;28;20115;-65
2021/03/25 03:29:24;;;;;;;43.13;12.30;;;;;;;4.32;79.27;100394.56;5103197;28;20024;-65
2021/03/25 03:32:07;;;;;;;40.95;11.27;;;;;;;4.26;79.58;100402.16;5103243;28;20044;-64
2021/03/25 03:34:37;;;;;;;42.33;13.20;;;;;;;4.26;79.74;100403.03;5102985;28;20409;-64
2021/03/25 03:37:11;;;;;;;36.60;11.98;;;;;;;4.25;79.90;100403.84;5103321;28;20083;-65
2021/03/25 03:39:38;;;;;;;32.35;10.60;;;;;;;4.28;79.93;100406.47;5103185;28;20020;-64
2021/03/25 03:42:19;;;;;;;34.13;11.48;;;;;;;4.28;80.05;100405.63;5103333;28;20031;-65
2021/03/25 03:44:48;;;;;;;29.42;10.57;;;;;;;4.29;80.21;100400.53;5103134;28;20016;-65
2021/03/25 03:47:19;;;;;;;44.38;12.70;;;;;;;4.26;80.02;100397.91;5084763;28;20515;-66
2021/03/25 03:50:01;;;;;;;37.75;10.40;;;;;;;4.29;80.14;100400.53;5102836;28;20032;-65
2021/03/25 03:52:34;;;;;;;40.72;10.90;;;;;;;4.33;79.93;100404.88;5103082;28;20032;-65
2021/03/25 03:55:01;;;;;;;33.67;11.50;;;;;;;4.29;80.06;100402.22;5102833;28;20213;-66
2021/03/25 03:58:00;;;;;;;37.67;11.93;;;;;;;4.30;80.08;100399.66;5105189;28;20031;-66
2021/03/25 04:00:33;;;;;;;29.88;11.07;;;;;;;4.30;80.14;100414.22;5106761;28;20016;-65
2021/03/25 04:03:17;;;;;;;32.22;11.27;;;;;;;4.29;80.07;100408.22;5106841;28;20424;-65
2021/03/25 04:05:50;;;;;;;30.70;11.15;;;;;;;4.29;80.43;100408.22;5106508;28;20031;-66
2021/03/25 04:08:22;;;;;;;22.90;8.05;;;;;;;4.28;80.34;100401.34;5106851;28;20031;-65
2021/03/25 04:10:55;;;;;;;29.50;9.93;;;;;;;4.29;80.29;100402.22;5087958;28;20024;-65
2021/03/25 04:13:33;;;;;;;36.80;10.77;;;;;;;4.29;80.28;100395.38;5106713;28;20560;-64
2021/03/25 04:15:59;;;;;;;33.03;11.25;;;;;;;4.33;80.22;100399.72;5106435;28;20031;-65
2021/03/25 04:18:34;;;;;;;30.45;9.27;;;;;;;4.31;80.42;100400.53;5106499;28;20020;-65
2021/03/25 04:21:09;;;;;;;23.80;8.88;;;;;;;4.30;80.24;100403.94;5106050;28;20024;-66
2021/03/25 04:23:38;;;;;;;37.67;11.18;;;;;;;4.33;79.98;100409.13;5105560;28;20047;-66
2021/03/25 04:26:03;;;;;;;33.22;9.35;;;;;;;4.29;80.02;100403.09;5106298;28;20498;-65
2021/03/25 04:28:37;;;;;;;39.92;11.13;;;;;;;4.32;80.25;100404.84;5106368;28;20583;-65
2021/03/25 04:31:06;;;;;;;32.67;10.95;;;;;;;4.33;79.95;100394.59;5106457;28;20104;-66
2021/03/25 04:33:34;;;;;;;31.25;10.80;;;;;;;4.31;80.07;100390.25;5106414;28;20031;-65
2021/03/25 04:35:59;;;;;;;39.03;11.43;;;;;;;4.37;80.07;100405.78;5105860;28;20446;-65
2021/03/25 04:38:31;;;;;;;28.50;12.43;;;;;;;4.40;79.84;100405.84;5106204;28;20027;-66
2021/03/25 04:40:58;;;;;;;;;;;;;;;4.40;79.92;100408.41;5106587;28;20020;-66
2021/03/25 04:43:25;;;;;;;40.75;13.63;;;;;;;4.42;79.69;100406.75;5106078;28;20006;-65
2021/03/25 04:46:00;;;;;;;35.58;13.80;;;;;;;4.40;79.79;100412.69;5106066;28;20039;-66
2021/03/25 04:48:28;;;;;;;40.17;13.52;;;;;;;4.38;79.87;100407.50;5105900;28;20036;-65
2021/03/25 04:51:16;;;;;;;49.28;12.55;;;;;;;4.39;80.08;100414.41;5105493;28;20075;-66
2021/03/25 04:53:49;;;;;;;47.28;15.35;;;;;;;4.39;79.92;100400.69;5106101;28;20020;-65
2021/03/25 04:56:24;;;;;;;35.13;12.65;;;;;;;4.41;79.95;100406.72;5104465;28;20035;-67
2021/03/25 04:58:57;;;;;;;44.00;14.30;;;;;;;4.39;79.91;100418.66;5105572;28;20020;-65
2021/03/25 05:01:31;;;;;;;42.72;13.57;;;;;;;4.38;79.90;100411.81;5105892;28;20024;-65
2021/03/25 05:04:02;;;;;;;40.67;14.40;;;;;;;4.40;79.98;100420.38;5105836;28;20135;-66
2021/03/25 05:06:34;;;;;;;43.75;14.23;;;;;;;4.38;80.08;100410.09;5103805;28;20035;-66
2021/03/25 05:09:00;;;;;;;42.10;15.70;;;;;;;4.44;80.00;100412.75;5105010;28;20045;-65
2021/03/25 05:11:27;;;;;;;40.83;15.02;;;;;;;4.47;80.09;100415.38;5105517;28;20107;-66
2021/03/25 05:13:57;;;;;;;38.97;14.40;;;;;;;4.50;79.90;100413.69;5105410;28;20028;-66
2021/03/25 05:16:31;;;;;;;46.63;15.13;;;;;;;4.55;79.77;100414.66;5105336;28;20020;-65
2021/03/25 05:19:15;;;;;;;40.38;13.65;;;;;;;4.54;79.71;100423.19;5105006;28;20377;-64
2021/03/25 05:22:08;;;;;;;40.97;14.32;;;;;;;4.51;79.95;100413.72;5104919;28;20450;-65
2021/03/25 05:24:54;;;;;;;34.28;13.32;;;;;;;4.50;79.97;100422.28;5105331;28;20072;-65
2021/03/25 05:27:23;;;;;;;46.38;16.90;;;;;;;4.45;80.14;100422.22;5105132;28;20150;-64
2021/03/25 05:29:52;;;;;;;41.17;14.65;;;;;;;4.45;80.41;100421.34;5104807;28;20032;-65
2021/03/25 05:32:21;;;;;;;43.45;16.02;;;;;;;4.47;80.10;100420.53;5105118;28;20027;-66
2021/03/25 05:34:49;;;;;;;46.15;15.40;;;;;;;4.52;80.16;100422.31;5104727;28;20024;-64
2021/03/25 05:37:15;;;;;;;33.75;14.30;;;;;;;4.49;79.98;100415.41;5104987;28;20016;-65
2021/03/25 05:39:40;;;;;;;41.30;13.23;;;;;;;4.44;80.01;100423.03;5104870;28;20020;-65
2021/03/25 05:42:24;;;;;;;39.22;14.45;;;;;;;4.39;80.28;100416.09;5105086;28;20030;-65
2021/03/25 05:45:32;;;;;;;46.42;17.60;;;;;;;4.33;80.33;100419.41;5104773;28;20024;-65
2021/03/25 05:48:25;;;;;;;50.17;15.25;;;;;;;4.27;80.66;100422.75;5104620;28;20024;-65
2021/03/25 05:51:00;;;;;;;38.45;15.10;;;;;;;4.27;80.55;100420.19;5104135;28;20050;-65
2021/03/25 05:53:49;;;;;;;36.50;13.38;;;;;;;4.28;80.54;100424.47;5104435;28;20028;-65
2021/03/25 05:56:52;;;;;;;38.85;14.98;;;;;;;4.22;80.59;100422.66;5104711;28;20074;-65
2021/03/25 05:59:26;;;;;;;52.58;16.73;;;;;;;4.26;80.85;100422.72;5104632;28;20565;-65
2021/03/25 06:02:07;;;;;;;49.17;15.68;;;;;;;4.25;81.10;100428.72;5104959;28;20028;-65
2021/03/25 06:04:37;;;;;;;52.28;16.98;;;;;;;4.27;81.21;100433.03;5104493;28;20074;-65
2021/03/25 06:07:05;;;;;;;47.83;14.77;;;;;;;4.28;81.25;100432.19;5104381;28;20023;-65
2021/03/25 06:09:34;;;;;;;29.10;11.02;;;;;;;4.30;81.29;100429.63;5104191;28;20024;-65
2021/03/25 06:12:02;;;;;;;38.78;13.55;;;;;;;4.29;81.24;100431.38;5104439;28;20043;-67
2021/03/25 06:14:43;;;;;;;41.10;11.52;;;;;;;4.28;80.89;100428.75;5104037;28;20031;-65
2021/03/25 06:17:18;;;;;;;44.10;13.35;;;;;;;4.17;80.99;100429.41;5104150;28;20047;-65
2021/03/25 06:19:55;;;;;;;49.40;15.98;;;;;;;4.20;81.10;100438.91;5103092;28;20020;-65
2021/03/25 06:22:29;;;;;;;48.97;15.18;;;;;;;4.21;81.28;100449.22;5103807;28;20047;-66
2021/03/25 06:25:27;;;;;;;41.22;14.52;;;;;;;4.22;81.34;100443.22;5104141;28;20415;-66
2021/03/25 06:28:17;;;;;;;30.00;9.27;;;;;;;4.28;81.39;100437.31;5083838;28;20028;-66
2021/03/25 06:31:00;;;;;;;49.40;17.33;;;;;;;4.32;81.46;100448.53;5083530;28;20112;-65
2021/03/25 06:33:34;;;;;;;54.78;18.63;;;;;;;4.31;81.30;100441.66;5083492;28;20028;-66
2021/03/25 06:36:12;;;;;;;56.05;19.15;;;;;;;4.30;81.43;100445.06;5083335;28;20388;-65
2021/03/25 06:38:41;;;;;;;44.65;15.35;;;;;;;4.42;81.26;100447.00;5083650;28;20113;-67
2021/03/25 06:41:16;;;;;;;46.17;19.75;;;;;;;4.47;81.09;100447.94;5083542;28;20048;-66
2021/03/25 06:44:13;;;;;;;46.00;14.30;;;;;;;4.48;81.08;100459.97;5083509;28;20025;-65
2021/03/25 06:46:42;;;;;;;36.90;13.48;;;;;;;4.45;81.08;100440.22;5067361;28;20036;-66
2021/03/25 06:49:24;;;;;;;29.00;9.88;;;;;;;4.49;81.11;100443.69;5083536;28;20031;-65
2021/03/25 06:51:50;;;;;;;47.58;13.35;;;;;;;4.41;80.96;100440.97;5081835;28;20028;-65
2021/03/25 06:54:20;;;;;;;44.65;15.63;;;;;;;4.51;81.32;100443.72;5083704;28;20452;-64
2021/03/25 06:56:49;;;;;;;41.63;13.55;;;;;;;4.60;81.32;100446.44;5084361;28;20025;-65
2021/03/25 06:59:37;;;;;;;43.03;13.15;;;;;;;4.66;81.13;100445.69;5085568;28;20027;-65
2021/03/25 07:02:09;;;;;;;52.80;15.65;;;;;;;4.71;81.04;100444.91;5084225;28;20024;-64
2021/03/25 07:04:41;;;;;;;33.95;12.85;;;;;;;4.76;81.20;100446.72;5067124;28;20416;-64
2021/03/25 07:07:14;;;;;;;26.67;12.13;;;;;;;4.76;80.60;100444.97;5085394;28;20082;-65
2021/03/25 07:09:41;;;;;;;35.88;14.07;;;;;;;4.77;80.77;100443.28;5085283;28;20059;-64
2021/03/25 07:12:19;;;;;;;48.38;14.15;;;;;;;4.81;80.75;100445.06;5085515;28;20490;-64
2021/03/25 07:14:52;;;;;;;50.90;14.32;;;;;;;4.88;80.38;100441.75;5085369;28;20037;-64
2021/03/25 07:17:31;;;;;;;41.10;14.18;;;;;;;4.89;80.60;100450.34;5085515;28;20037;-64
2021/03/25 07:20:00;;;;;;;38.03;13.98;;;;;;;4.90;80.52;100445.22;5085012;28;20028;-64
2021/03/25 07:22:30;;;;;;;37.40;12.55;;;;;;;4.99;80.33;100446.19;5085248;28;20098;-64
2021/03/25 07:25:19;;;;;;;49.45;15.20;;;;;;;5.02;80.13;100441.09;5085429;28;20032;-66
2021/03/25 07:27:47;;;;;;;45.50;17.98;;;;;;;5.13;80.31;100438.69;5085450;28;20036;-65
2021/03/25 07:30:19;;;;;;;40.72;14.15;;;;;;;5.22;80.17;100446.53;5085313;28;20025;-65
2021/03/25 07:32:52;;;;;;;40.15;15.90;;;;;;;5.27;79.52;100447.44;5089297;28;20035;-65
2021/03/25 07:35:59;;;;;;;54.70;16.15;;;;;;;5.31;79.76;100450.94;5089099;28;20032;-65
2021/03/25 07:38:30;;;;;;;41.65;15.95;;;;;;;5.32;79.11;100453.53;5071776;28;20037;-64
2021/03/25 07:41:32;;;;;;;40.95;17.67;;;;;;;5.21;79.00;100448.25;5089099;28;20028;-64
2021/03/25 07:44:21;;;;;;;34.88;12.88;;;;;;;5.17;78.97;100458.47;5089310;28;20103;-64
2021/03/25 07:46:46;;;;;;;32.42;14.57;;;;;;;5.08;79.16;100462.63;5089001;28;20024;-64
2021/03/25 07:49:14;;;;;;;43.33;15.98;;;;;;;5.04;79.36;100471.16;5071031;28;20033;-65
2021/03/25 07:51:49;;;;;;;48.35;15.60;;;;;;;5.08;79.21;100470.34;5088330;28;20020;-65
2021/03/25 07:54:25;;;;;;;44.30;17.00;;;;;;;5.00;79.05;100471.09;5088913;28;20479;-64
2021/03/25 07:57:03;;;;;;;35.85;15.05;;;;;;;4.94;79.58;100480.44;5088904;28;20031;-66
2021/03/25 07:59:29;;;;;;;30.48;12.65;;;;;;;5.06;79.50;100484.06;5088796;28;20024;-64
2021/03/25 08:01:57;;;;;;;52.60;16.85;;;;;;;5.02;79.29;100479.69;5088732;28;20016;-64
2021/03/25 08:04:25;;;;;;;35.78;14.10;;;;;;;4.98;79.54;100471.06;5088637;28;20028;-65
2021/03/25 08:07:00;;;;;;;37.40;13.93;;;;;;;5.09;79.66;100468.66;5088331;28;20087;-66
2021/03/25 08:09:27;;;;;;;36.55;13.80;;;;;;;5.12;79.44;100473.84;5088459;28;20033;-65
2021/03/25 08:12:02;;;;;;;43.47;15.10;;;;;;;5.09;79.34;100473.81;5088372;28;20103;-64
2021/03/25 08:14:33;;;;;;;37.10;14.10;;;;;;;5.10;79.55;100479.81;5088421;28;20039;-65
2021/03/25 08:17:04;;;;;;;34.75;12.57;;;;;;;5.06;79.20;100474.59;5088219;28;20025;-65
2021/03/25 08:19:54;;;;;;;31.02;10.75;;;;;;;5.07;79.41;100468.63;5088216;28;20058;-65
2021/03/25 08:22:32;;;;;;;31.83;14.10;;;;;;;5.16;79.33;100480.75;5087953;28;20048;-65
2021/03/25 08:25:17;;;;;;;33.00;12.23;;;;;;;5.26;79.01;100480.91;5088448;28;20027;-66
2021/03/25 08:28:01;;;;;;;31.92;12.40;;;;;;;5.27;79.04;100482.66;5073882;28;20032;-65
2021/03/25 08:30:50;;;;;;;33.88;12.38;;;;;;;5.40;78.98;100481.97;5088131;28;20088;-65
2021/03/25 08:33:25;;;;;;;34.88;15.25;;;;;;;5.56;78.81;100484.75;5088196;28;20024;-67
2021/03/25 08:36:17;;;;;;;33.13;13.48;;;;;;;5.67;78.02;100477.19;5069717;28;20431;-67
2021/03/25 08:38:48;;;;;;;30.75;13.55;;;;;;;5.68;77.72;100490.09;5088052;28;20029;-66
2021/03/25 08:41:27;;;;;;;31.23;12.67;;;;;;;5.66;77.48;100486.63;5069896;28;20032;-67
2021/03/25 08:44:28;;;;;;;41.25;13.85;;;;;;;5.61;77.12;100483.09;5087116;28;20031;-66
2021/03/25 08:47:02;;;;;;;39.40;13.13;;;;;;;5.66;77.08;100485.75;5006012;28;20064;-66
2021/03/25 08:50:01;;;;;;;30.25;11.85;;;;;;;5.62;76.89;100481.41;5006456;28;20046;-66
2021/03/25 08:52:30;;;;;;;39.10;12.70;;;;;;;5.74;77.47;100498.72;5006263;28;20037;-66
2021/03/25 08:55:16;;;;;;;30.13;10.88;;;;;;;5.99;76.98;100505.03;5006120;28;20038;-67
2021/03/25 08:57:42;;;;;;;32.03;12.70;;;;;;;5.92;75.82;100504.13;5006166;28;20038;-66
2021/03/25 09:00:17;;;;;;;43.55;13.80;;;;;;;5.85;76.00;100497.16;5006008;28;20030;-67
2021/03/25 09:02:51;;;;;;;34.10;11.00;;;;;;;5.68;76.03;100507.25;5006060;28;20041;-67
2021/03/25 09:05:23;;;;;;;29.85;12.18;;;;;;;5.55;76.73;100494.19;5005795;28;20084;-67
2021/03/25 09:07:50;;;;;;;28.75;9.82;;;;;;;5.73;76.74;100492.72;5006116;28;20110;-66
2021/03/25 09:10:18;;;;;;;34.20;12.13;;;;;;;5.83;76.62;100488.56;5005716;28;20034;-67
2021/03/25 09:12:43;;;;;;;21.80;7.53;;;;;;;5.85;76.23;100494.56;5005876;28;20038;-66
2021/03/25 09:15:09;;;;;;;34.83;13.50;;;;;;;5.78;75.94;100508.22;5005803;28;20031;-67
2021/03/25 09:17:45;;;;;;;37.78;12.40;;;;;;;5.67;76.20;100503.78;5005722;28;20030;-66
2021/03/25 09:20:18;;;;;;;39.85;14.73;;;;;;;5.67;76.58;100500.38;5005200;28;20030;-66
2021/03/25 09:22:48;;;;;;;33.33;13.35;;;;;;;5.72;76.28;100497.84;5031785;28;20078;-65
2021/03/25 09:25:26;;;;;;;34.53;15.55;;;;;;;5.70;76.30;100508.97;5087243;28;20051;-66
2021/03/25 09:28:04;;;;;;;34.80;14.45;;;;;;;5.66;76.49;100511.50;5087163;28;20048;-65
2021/03/25 09:30:43;;;;;;;35.40;10.73;;;;;;;5.76;76.48;100522.78;5087010;28;20030;-66
2021/03/25 09:33:46;;;;;;;32.75;13.88;;;;;;;5.74;76.38;100514.19;5087029;28;20036;-66
2021/03/25 09:36:17;;;;;;;33.47;15.00;;;;;;;5.86;76.34;100523.78;5086796;28;20028;-64
2021/03/25 09:38:44;;;;;;;31.45;14.43;;;;;;;5.92;76.09;100505.81;5087025;28;20025;-66
2021/03/25 09:41:25;;;;;;;32.92;12.88;;;;;;;5.88;75.78;100506.66;5086706;28;20380;-66
2021/03/25 09:44:09;;;;;;;35.72;14.10;;;;;;;5.95;76.11;100509.31;5086938;28;20021;-66
2021/03/25 09:46:53;;;;;;;34.95;14.43;;;;;;;6.10;75.31;100502.66;5086872;28;20039;-66
2021/03/25 09:49:18;;;;;;;32.80;15.18;;;;;;;6.15;75.52;100507.84;5086603;28;20056;-64
2021/03/25 09:51:45;;;;;;;32.13;10.55;;;;;;;6.15;75.09;100498.38;5086498;28;20043;-67
2021/03/25 09:54:39;;;;;;;28.70;9.73;;;;;;;6.04;74.67;100513.72;5085633;28;20052;-67
2021/03/25 09:57:30;;;;;;;31.98;13.48;;;;;;;5.97;75.16;100513.63;5082901;28;20032;-65
2021/03/25 09:59:57;;;;;;;34.22;13.93;;;;;;;5.89;75.09;100498.06;5086662;28;20023;-67
2021/03/25 10:02:41;;;;;;;33.78;13.88;;;;;;;5.98;75.35;100507.59;5086627;28;20035;-67
2021/03/25 10:05:30;;;;;;;31.15;11.18;;;;;;;6.08;75.54;100501.75;5086338;28;20134;-67
2021/03/25 10:08:24;;;;;;;38.90;14.68;;;;;;;6.14;75.16;100509.56;5086524;28;20084;-66
2021/03/25 10:10:54;;;;;;;43.17;16.63;;;;;;;6.18;74.68;100501.00;5086134;28;20086;-65
2021/03/25 10:13:29;;;;;;;41.67;16.15;;;;;;;6.07;74.90;100510.34;5068332;28;20115;-66
2021/03/25 10:15:58;;;;;;;29.45;12.55;;;;;;;5.95;74.93;100501.59;5086409;28;20089;-68
2021/03/25 10:18:26;;;;;;;35.22;13.68;;;;;;;5.79;75.66;100512.53;5086236;28;20036;-66
2021/03/25 10:21:06;;;;;;;43.10;15.43;;;;;;;5.69;76.05;100516.69;5085484;28;20021;-66
2021/03/25 10:23:43;;;;;;;40.55;15.68;;;;;;;5.64;76.47;100514.06;5086024;28;20123;-65
2021/03/25 10:26:11;;;;;;;38.40;15.73;;;;;;;5.60;76.82;100516.56;5086229;28;20024;-65
2021/03/25 10:28:48;;;;;;;35.65;14.07;;;;;;;5.62;77.12;100515.75;5086139;28;20024;-65
2021/03/25 10:31:26;;;;;;;31.15;11.32;;;;;;;5.70;76.96;100508.97;5085999;28;20025;-65
2021/03/25 10:33:55;;;;;;;37.72;14.52;;;;;;;5.63;77.05;100509.75;5086123;28;20039;-66
2021/03/25 10:36:39;;;;;;;38.10;15.18;;;;;;;5.69;77.52;100515.00;5084351;28;20024;-64
2021/03/25 10:39:07;;;;;;;34.83;12.60;;;;;;;5.93;77.35;100516.16;5085972;28;20028;-66
2021/03/25 10:41:35;;;;;;;40.10;14.95;;;;;;;6.10;76.80;100515.53;5085800;28;20020;-65
2021/03/25 10:44:39;;;;;;;24.75;12.40;;;;;;;6.20;75.79;100514.78;5085888;28;20048;-69
2021/03/25 10:47:08;;;;;;;41.20;14.98;;;;;;;6.12;75.78;100506.09;5004025;28;20030;-65
2021/03/25 10:49:54;;;;;;;41.28;17.10;;;;;;;6.12;75.80;100505.25;5004139;28;20037;-64
2021/03/25 10:52:37;;;;;;;43.40;17.17;;;;;;;6.20;75.58;100509.63;5004034;28;20054;-65
2021/03/25 10:55:17;;;;;;;42.65;15.40;;;;;;;6.22;75.46;100507.06;5004179;28;20037;-66
2021/03/25 10:57:47;;;;;;;38.88;14.25;;;;;;;6.22;75.32;100506.19;5004157;28;20059;-65
2021/03/25 11:00:22;;;;;;;32.55;12.95;;;;;;;6.22;75.60;100495.88;5003837;28;20033;-66
2021/03/25 11:02:48;;;;;;;38.40;17.15;;;;;;;6.32;75.12;100508.03;4987978;28;20034;-65
2021/03/25 11:05:26;;;;;;;34.75;15.32;;;;;;;6.42;75.13;100506.44;5003312;28;20034;-66
2021/03/25 11:08:13;;;;;;;26.85;10.93;;;;;;;6.43;74.60;100508.16;5003915;28;20492;-65
2021/03/25 11:10:39;;;;;;;42.22;15.98;;;;;;;6.35;74.53;100508.06;5003527;28;20469;-66
2021/03/25 11:13:15;;;;;;;44.90;16.27;;;;;;;6.29;75.06;100502.84;5003818;28;20058;-66
2021/03/25 11:15:44;;;;;;;30.80;14.63;;;;;;;6.40;74.67;100505.53;5003870;28;20553;-65
2021/03/25 11:18:17;;;;;;;41.45;17.27;;;;;;;6.48;74.60;100503.03;5046424;28;20062;-65
2021/03/25 11:20:43;;;;;;;37.63;14.75;;;;;;;6.57;74.37;100503.13;5084786;28;20019;-65
2021/03/25 11:23:14;;;;;;;49.30;15.30;;;;;;;6.85;74.27;100497.34;5085057;28;20113;-67
2021/03/25 11:25:39;;;;;;;19.33;7.18;;;;;;;7.09;72.62;100488.06;5085232;28;20032;-66
2021/03/25 11:28:08;;;;;;;32.72;12.45;;;;;;;7.07;72.18;100503.56;5085446;28;20028;-67
2021/03/25 11:30:39;;;;;;;24.50;10.80;;;;;;;7.11;72.02;100500.13;5085218;28;20032;-66
2021/03/25 11:33:27;;;;;;;34.50;13.35;;;;;;;7.06;71.77;100500.09;5085448;28;20048;-68
2021/03/25 11:35:53;;;;;;;30.42;12.82;;;;;;;7.01;71.83;100503.50;5085007;28;20025;-66
2021/03/25 11:38:32;;;;;;;31.17;12.85;;;;;;;6.96;72.15;100510.34;5085357;28;20048;-66
2021/03/25 11:41:07;;;;;;;32.50;15.23;;;;;;;6.94;72.38;100502.59;5085087;28;20024;-66
2021/03/25 11:43:56;;;;;;;24.73;9.93;;;;;;;6.96;72.31;100511.22;5085387;28;20028;-66
2021/03/25 11:46:25;;;;;;;37.40;16.55;;;;;;;6.99;72.23;100506.09;5067118;28;20051;-66
2021/03/25 11:49:02;;;;;;;33.10;15.15;;;;;;;6.91;72.15;100500.88;5085152;28;20039;-66
2021/03/25 11:51:33;;;;;;;39.67;17.08;;;;;;;6.95;72.20;100509.47;5084659;28;20058;-66
2021/03/25 11:54:21;;;;;;;33.10;13.75;;;;;;;6.90;72.31;100501.69;5085171;28;20099;-66